CheckWX is a tool to help pilots better visualize weather data.  It is not intended as a substitute for an official pre-flight weather briefing.

12:23:10 UTC

KVGT TAF
North Las Vegas Airport
Las Vegas, Nevada, USA
KVGT 271140Z 2712/2812 12007KT P6SM FEW250 FM271700 19015G25KT P6SM FEW250 FM280300 20010KT P6SM FEW250

Jun-27@
12:00 UTC

Jun-27 @ 12:00 UTC

Jun-27@
17:00 UTC

Jun-27 @ 17:00 UTC

KVGT 271140Z 2712/2812 12007KT P6SM FEW250
Wind
  • 120° at 7 KTS
Cloud Levels
  • Few at 25,000' AGL

Jun-27@
17:00 UTC

Jun-27 @ 17:00 UTC

Jun-28@
03:00 UTC

Jun-28 @ 03:00 UTC

FM271700 19015G25KT P6SM FEW250

From

From Standard forecast or significant change

Wind
  • 190° at 15 KTS
  • {Gusting to 25 KTS
Cloud Levels
  • Few at 25,000' AGL

Jun-28@
03:00 UTC

Jun-28 @ 03:00 UTC

Jun-28@
12:00 UTC

Jun-28 @ 12:00 UTC

FM280300 20010KT P6SM FEW250

From

From Standard forecast or significant change

Wind
  • 200° at 10 KTS
Cloud Levels
  • Few at 25,000' AGL